sensor_id;sensor_type;location;lat;lon;timestamp;P1;durP1;ratioP1;P2;durP2;ratioP2
40162;SDS011;25881;47.462;19.304;2022-12-18T00:06:15;63.05;;;27.20;;
40162;SDS011;25881;47.462;19.304;2022-12-18T00:08:41;73.57;;;28.30;;
40162;SDS011;25881;47.462;19.304;2022-12-18T00:11:08;63.97;;;27.45;;
40162;SDS011;25881;47.462;19.304;2022-12-18T00:13:39;68.95;;;29.67;;
40162;SDS011;25881;47.462;19.304;2022-12-18T00:16:05;65.78;;;29.27;;
40162;SDS011;25881;47.462;19.304;2022-12-18T00:18:31;63.25;;;27.50;;
40162;SDS011;25881;47.462;19.304;2022-12-18T00:21:00;61.08;;;29.23;;
40162;SDS011;25881;47.462;19.304;2022-12-18T00:23:26;64.30;;;30.45;;
40162;SDS011;25881;47.462;19.304;2022-12-18T00:25:51;67.43;;;29.13;;
40162;SDS011;25881;47.462;19.304;2022-12-18T00:28:16;58.38;;;27.13;;
40162;SDS011;25881;47.462;19.304;2022-12-18T00:30:41;63.53;;;29.07;;
40162;SDS011;25881;47.462;19.304;2022-12-18T00:33:07;61.07;;;27.97;;
40162;SDS011;25881;47.462;19.304;2022-12-18T00:35:32;70.05;;;29.58;;
40162;SDS011;25881;47.462;19.304;2022-12-18T00:37:57;65.97;;;30.00;;
40162;SDS011;25881;47.462;19.304;2022-12-18T00:40:22;70.13;;;30.17;;
40162;SDS011;25881;47.462;19.304;2022-12-18T00:42:48;67.33;;;30.73;;
40162;SDS011;25881;47.462;19.304;2022-12-18T00:45:26;70.20;;;30.77;;
40162;SDS011;25881;47.462;19.304;2022-12-18T00:47:51;65.85;;;28.75;;
40162;SDS011;25881;47.462;19.304;2022-12-18T00:50:17;69.15;;;29.63;;
40162;SDS011;25881;47.462;19.304;2022-12-18T00:52:42;74.20;;;32.60;;
40162;SDS011;25881;47.462;19.304;2022-12-18T00:55:08;66.45;;;29.73;;
40162;SDS011;25881;47.462;19.304;2022-12-18T00:57:33;65.95;;;29.02;;
40162;SDS011;25881;47.462;19.304;2022-12-18T00:59:58;68.63;;;28.77;;
40162;SDS011;25881;47.462;19.304;2022-12-18T01:02:24;67.63;;;29.42;;
40162;SDS011;25881;47.462;19.304;2022-12-18T01:04:49;71.90;;;31.00;;
40162;SDS011;25881;47.462;19.304;2022-12-18T01:07:14;73.40;;;31.13;;
40162;SDS011;25881;47.462;19.304;2022-12-18T01:09:39;70.70;;;31.50;;
40162;SDS011;25881;47.462;19.304;2022-12-18T01:12:05;62.97;;;28.50;;
40162;SDS011;25881;47.462;19.304;2022-12-18T01:14:30;66.28;;;31.48;;
40162;SDS011;25881;47.462;19.304;2022-12-18T01:16:55;75.20;;;30.87;;
40162;SDS011;25881;47.462;19.304;2022-12-18T01:19:21;65.83;;;29.10;;
40162;SDS011;25881;47.462;19.304;2022-12-18T01:21:46;70.07;;;30.13;;
40162;SDS011;25881;47.462;19.304;2022-12-18T01:24:11;64.45;;;28.90;;
40162;SDS011;25881;47.462;19.304;2022-12-18T01:26:37;74.25;;;29.90;;
40162;SDS011;25881;47.462;19.304;2022-12-18T01:29:02;68.72;;;30.35;;
40162;SDS011;25881;47.462;19.304;2022-12-18T01:31:29;70.55;;;30.33;;
40162;SDS011;25881;47.462;19.304;2022-12-18T01:33:55;69.22;;;31.63;;
40162;SDS011;25881;47.462;19.304;2022-12-18T01:36:22;75.53;;;32.15;;
40162;SDS011;25881;47.462;19.304;2022-12-18T01:38:47;64.85;;;30.73;;
40162;SDS011;25881;47.462;19.304;2022-12-18T01:41:13;68.10;;;29.85;;
40162;SDS011;25881;47.462;19.304;2022-12-18T01:43:42;67.63;;;30.08;;
40162;SDS011;25881;47.462;19.304;2022-12-18T01:46:08;69.75;;;29.17;;
40162;SDS011;25881;47.462;19.304;2022-12-18T01:48:34;66.45;;;29.90;;
40162;SDS011;25881;47.462;19.304;2022-12-18T01:50:59;66.55;;;31.00;;
40162;SDS011;25881;47.462;19.304;2022-12-18T01:53:24;73.13;;;29.52;;
40162;SDS011;25881;47.462;19.304;2022-12-18T01:55:51;64.53;;;30.58;;
40162;SDS011;25881;47.462;19.304;2022-12-18T01:58:17;69.13;;;30.98;;
40162;SDS011;25881;47.462;19.304;2022-12-18T02:00:43;65.35;;;30.40;;
40162;SDS011;25881;47.462;19.304;2022-12-18T02:03:08;67.20;;;28.52;;
40162;SDS011;25881;47.462;19.304;2022-12-18T02:05:36;68.10;;;30.30;;
40162;SDS011;25881;47.462;19.304;2022-12-18T02:08:21;72.32;;;30.27;;
40162;SDS011;25881;47.462;19.304;2022-12-18T02:18:35;67.47;;;31.43;;
40162;SDS011;25881;47.462;19.304;2022-12-18T02:26:27;65.75;;;28.65;;
40162;SDS011;25881;47.462;19.304;2022-12-18T02:29:13;68.50;;;31.92;;
40162;SDS011;25881;47.462;19.304;2022-12-18T02:31:41;72.10;;;30.15;;
40162;SDS011;25881;47.462;19.304;2022-12-18T02:36:33;70.27;;;30.07;;
40162;SDS011;25881;47.462;19.304;2022-12-18T02:39:00;73.13;;;30.40;;
40162;SDS011;25881;47.462;19.304;2022-12-18T02:41:26;65.88;;;29.15;;
40162;SDS011;25881;47.462;19.304;2022-12-18T02:43:53;63.20;;;27.67;;
40162;SDS011;25881;47.462;19.304;2022-12-18T02:46:36;62.08;;;27.45;;
40162;SDS011;25881;47.462;19.304;2022-12-18T02:49:14;67.82;;;29.00;;
40162;SDS011;25881;47.462;19.304;2022-12-18T02:51:46;60.20;;;27.95;;
40162;SDS011;25881;47.462;19.304;2022-12-18T02:54:20;67.72;;;29.55;;
40162;SDS011;25881;47.462;19.304;2022-12-18T02:56:50;70.60;;;32.30;;
40162;SDS011;25881;47.462;19.304;2022-12-18T02:59:17;69.72;;;29.73;;
40162;SDS011;25881;47.462;19.304;2022-12-18T03:06:41;83.05;;;35.70;;
40162;SDS011;25881;47.462;19.304;2022-12-18T03:09:08;86.25;;;37.22;;
40162;SDS011;25881;47.462;19.304;2022-12-18T03:11:34;78.72;;;34.63;;
40162;SDS011;25881;47.462;19.304;2022-12-18T03:14:20;72.45;;;32.13;;
40162;SDS011;25881;47.462;19.304;2022-12-18T03:16:46;67.72;;;30.05;;
40162;SDS011;25881;47.462;19.304;2022-12-18T03:19:14;71.47;;;29.00;;
40162;SDS011;25881;47.462;19.304;2022-12-18T03:21:51;62.30;;;27.33;;
40162;SDS011;25881;47.462;19.304;2022-12-18T03:24:18;68.80;;;28.77;;
40162;SDS011;25881;47.462;19.304;2022-12-18T03:26:44;62.67;;;30.65;;
40162;SDS011;25881;47.462;19.304;2022-12-18T03:29:16;72.18;;;31.83;;
40162;SDS011;25881;47.462;19.304;2022-12-18T03:31:43;69.30;;;28.40;;
40162;SDS011;25881;47.462;19.304;2022-12-18T03:34:13;68.22;;;28.75;;
40162;SDS011;25881;47.462;19.304;2022-12-18T03:36:40;76.13;;;30.87;;
40162;SDS011;25881;47.462;19.304;2022-12-18T03:39:05;68.00;;;29.63;;
40162;SDS011;25881;47.462;19.304;2022-12-18T03:41:34;71.17;;;29.03;;
40162;SDS011;25881;47.462;19.304;2022-12-18T03:47:05;66.63;;;28.10;;
40162;SDS011;25881;47.462;19.304;2022-12-18T03:49:34;65.55;;;28.42;;
40162;SDS011;25881;47.462;19.304;2022-12-18T03:54:25;68.17;;;30.67;;
40162;SDS011;25881;47.462;19.304;2022-12-18T03:56:54;71.85;;;31.67;;
40162;SDS011;25881;47.462;19.304;2022-12-18T03:59:22;68.07;;;30.73;;
40162;SDS011;25881;47.462;19.304;2022-12-18T04:01:49;74.78;;;31.80;;
40162;SDS011;25881;47.462;19.304;2022-12-18T04:04:16;74.80;;;31.40;;
40162;SDS011;25881;47.462;19.304;2022-12-18T04:06:43;70.40;;;30.02;;
40162;SDS011;25881;47.462;19.304;2022-12-18T04:09:08;70.68;;;29.50;;
40162;SDS011;25881;47.462;19.304;2022-12-18T04:11:34;64.60;;;28.98;;
40162;SDS011;25881;47.462;19.304;2022-12-18T04:13:59;77.07;;;31.50;;
40162;SDS011;25881;47.462;19.304;2022-12-18T04:16:25;74.78;;;32.28;;
40162;SDS011;25881;47.462;19.304;2022-12-18T04:18:51;73.85;;;31.15;;
40162;SDS011;25881;47.462;19.304;2022-12-18T04:21:16;79.07;;;33.45;;
40162;SDS011;25881;47.462;19.304;2022-12-18T04:23:41;77.13;;;35.33;;
40162;SDS011;25881;47.462;19.304;2022-12-18T04:26:06;78.10;;;34.53;;
40162;SDS011;25881;47.462;19.304;2022-12-18T04:28:32;81.40;;;35.50;;
40162;SDS011;25881;47.462;19.304;2022-12-18T04:30:57;79.70;;;34.22;;
40162;SDS011;25881;47.462;19.304;2022-12-18T04:33:22;82.93;;;33.10;;
40162;SDS011;25881;47.462;19.304;2022-12-18T04:35:47;78.90;;;30.17;;
40162;SDS011;25881;47.462;19.304;2022-12-18T04:38:13;67.03;;;29.88;;
40162;SDS011;25881;47.462;19.304;2022-12-18T04:40:38;69.07;;;29.07;;
40162;SDS011;25881;47.462;19.304;2022-12-18T04:43:04;69.00;;;30.42;;
40162;SDS011;25881;47.462;19.304;2022-12-18T04:45:30;69.30;;;29.05;;
40162;SDS011;25881;47.462;19.304;2022-12-18T04:47:56;68.68;;;28.95;;
40162;SDS011;25881;47.462;19.304;2022-12-18T04:50:22;68.88;;;31.17;;
40162;SDS011;25881;47.462;19.304;2022-12-18T04:52:47;62.57;;;29.33;;
40162;SDS011;25881;47.462;19.304;2022-12-18T04:55:12;61.13;;;28.77;;
40162;SDS011;25881;47.462;19.304;2022-12-18T04:57:37;68.43;;;29.17;;
40162;SDS011;25881;47.462;19.304;2022-12-18T05:00:03;66.27;;;30.20;;
40162;SDS011;25881;47.462;19.304;2022-12-18T05:02:28;64.47;;;27.15;;
40162;SDS011;25881;47.462;19.304;2022-12-18T05:04:53;74.90;;;32.33;;
40162;SDS011;25881;47.462;19.304;2022-12-18T05:07:19;68.25;;;30.60;;
40162;SDS011;25881;47.462;19.304;2022-12-18T05:09:44;67.77;;;29.60;;
40162;SDS011;25881;47.462;19.304;2022-12-18T05:12:09;66.13;;;29.38;;
40162;SDS011;25881;47.462;19.304;2022-12-18T05:14:34;67.33;;;29.70;;
40162;SDS011;25881;47.462;19.304;2022-12-18T05:17:00;72.03;;;31.97;;
40162;SDS011;25881;47.462;19.304;2022-12-18T05:19:25;72.33;;;31.07;;
40162;SDS011;25881;47.462;19.304;2022-12-18T05:21:50;70.70;;;29.33;;
40162;SDS011;25881;47.462;19.304;2022-12-18T05:24:15;70.03;;;28.77;;
40162;SDS011;25881;47.462;19.304;2022-12-18T05:26:40;69.00;;;28.73;;
40162;SDS011;25881;47.462;19.304;2022-12-18T05:29:06;74.17;;;30.93;;
40162;SDS011;25881;47.462;19.304;2022-12-18T05:31:31;66.33;;;28.87;;
40162;SDS011;25881;47.462;19.304;2022-12-18T05:33:57;77.27;;;31.57;;
40162;SDS011;25881;47.462;19.304;2022-12-18T05:36:22;66.50;;;29.92;;
40162;SDS011;25881;47.462;19.304;2022-12-18T05:38:48;67.85;;;31.25;;
40162;SDS011;25881;47.462;19.304;2022-12-18T05:41:13;66.68;;;29.00;;
40162;SDS011;25881;47.462;19.304;2022-12-18T05:43:39;67.40;;;28.88;;
40162;SDS011;25881;47.462;19.304;2022-12-18T05:46:05;66.53;;;29.35;;
40162;SDS011;25881;47.462;19.304;2022-12-18T05:48:31;62.10;;;27.85;;
40162;SDS011;25881;47.462;19.304;2022-12-18T05:50:56;60.42;;;26.50;;
40162;SDS011;25881;47.462;19.304;2022-12-18T05:53:27;64.40;;;26.60;;
40162;SDS011;25881;47.462;19.304;2022-12-18T05:55:52;61.28;;;27.40;;
40162;SDS011;25881;47.462;19.304;2022-12-18T05:58:18;58.93;;;25.60;;
40162;SDS011;25881;47.462;19.304;2022-12-18T06:00:44;65.00;;;27.70;;
40162;SDS011;25881;47.462;19.304;2022-12-18T06:03:10;62.22;;;27.05;;
40162;SDS011;25881;47.462;19.304;2022-12-18T06:05:36;68.20;;;28.02;;
40162;SDS011;25881;47.462;19.304;2022-12-18T06:08:02;61.95;;;27.55;;
40162;SDS011;25881;47.462;19.304;2022-12-18T06:10:27;59.67;;;26.15;;
40162;SDS011;25881;47.462;19.304;2022-12-18T06:12:52;65.50;;;29.85;;
40162;SDS011;25881;47.462;19.304;2022-12-18T06:15:18;58.53;;;27.15;;
40162;SDS011;25881;47.462;19.304;2022-12-18T06:17:43;66.77;;;28.27;;
40162;SDS011;25881;47.462;19.304;2022-12-18T06:20:08;64.87;;;29.60;;
40162;SDS011;25881;47.462;19.304;2022-12-18T06:22:34;64.25;;;28.73;;
40162;SDS011;25881;47.462;19.304;2022-12-18T06:25:00;68.15;;;28.50;;
40162;SDS011;25881;47.462;19.304;2022-12-18T06:27:25;66.13;;;26.27;;
40162;SDS011;25881;47.462;19.304;2022-12-18T06:29:50;66.75;;;27.15;;
40162;SDS011;25881;47.462;19.304;2022-12-18T06:32:15;63.35;;;26.10;;
40162;SDS011;25881;47.462;19.304;2022-12-18T06:34:41;61.63;;;26.55;;
40162;SDS011;25881;47.462;19.304;2022-12-18T06:37:06;66.70;;;28.13;;
40162;SDS011;25881;47.462;19.304;2022-12-18T06:39:32;66.00;;;29.90;;
40162;SDS011;25881;47.462;19.304;2022-12-18T06:41:57;69.33;;;29.23;;
40162;SDS011;25881;47.462;19.304;2022-12-18T06:44:22;68.55;;;29.02;;
40162;SDS011;25881;47.462;19.304;2022-12-18T06:46:47;92.00;;;34.75;;
40162;SDS011;25881;47.462;19.304;2022-12-18T06:49:13;102.40;;;40.60;;
40162;SDS011;25881;47.462;19.304;2022-12-18T06:51:38;90.53;;;38.93;;
40162;SDS011;25881;47.462;19.304;2022-12-18T06:54:03;75.15;;;33.75;;
40162;SDS011;25881;47.462;19.304;2022-12-18T06:56:29;68.43;;;29.60;;
40162;SDS011;25881;47.462;19.304;2022-12-18T06:58:54;67.63;;;29.23;;
40162;SDS011;25881;47.462;19.304;2022-12-18T07:01:20;67.72;;;29.23;;
40162;SDS011;25881;47.462;19.304;2022-12-18T07:03:45;65.25;;;28.85;;
40162;SDS011;25881;47.462;19.304;2022-12-18T07:06:14;69.63;;;31.08;;
40162;SDS011;25881;47.462;19.304;2022-12-18T07:08:40;66.72;;;31.05;;
40162;SDS011;25881;47.462;19.304;2022-12-18T07:11:05;70.47;;;34.50;;
40162;SDS011;25881;47.462;19.304;2022-12-18T07:13:31;70.07;;;34.13;;
40162;SDS011;25881;47.462;19.304;2022-12-18T07:16:02;78.40;;;40.80;;
40162;SDS011;25881;47.462;19.304;2022-12-18T07:18:28;76.05;;;38.20;;
40162;SDS011;25881;47.462;19.304;2022-12-18T07:20:53;75.20;;;37.37;;
40162;SDS011;25881;47.462;19.304;2022-12-18T07:23:18;80.73;;;38.23;;
40162;SDS011;25881;47.462;19.304;2022-12-18T07:25:43;77.20;;;38.70;;
40162;SDS011;25881;47.462;19.304;2022-12-18T07:28:09;67.43;;;31.27;;
40162;SDS011;25881;47.462;19.304;2022-12-18T07:30:36;69.75;;;33.33;;
40162;SDS011;25881;47.462;19.304;2022-12-18T07:33:01;76.90;;;33.92;;
40162;SDS011;25881;47.462;19.304;2022-12-18T07:35:26;87.47;;;38.23;;
40162;SDS011;25881;47.462;19.304;2022-12-18T07:37:52;76.67;;;36.77;;
40162;SDS011;25881;47.462;19.304;2022-12-18T07:40:17;84.32;;;40.53;;
40162;SDS011;25881;47.462;19.304;2022-12-18T07:42:42;89.03;;;41.53;;
40162;SDS011;25881;47.462;19.304;2022-12-18T07:45:07;81.30;;;39.55;;
40162;SDS011;25881;47.462;19.304;2022-12-18T07:47:34;88.32;;;36.58;;
40162;SDS011;25881;47.462;19.304;2022-12-18T07:50:00;76.90;;;35.05;;
40162;SDS011;25881;47.462;19.304;2022-12-18T07:52:26;74.93;;;33.65;;
40162;SDS011;25881;47.462;19.304;2022-12-18T07:54:51;79.70;;;37.90;;
40162;SDS011;25881;47.462;19.304;2022-12-18T07:57:16;76.27;;;33.70;;
40162;SDS011;25881;47.462;19.304;2022-12-18T07:59:42;78.25;;;36.15;;
40162;SDS011;25881;47.462;19.304;2022-12-18T08:02:07;70.85;;;34.45;;
40162;SDS011;25881;47.462;19.304;2022-12-18T08:04:32;76.50;;;33.67;;
40162;SDS011;25881;47.462;19.304;2022-12-18T08:06:58;66.33;;;27.70;;
40162;SDS011;25881;47.462;19.304;2022-12-18T08:09:23;63.67;;;28.55;;
40162;SDS011;25881;47.462;19.304;2022-12-18T08:11:48;57.23;;;24.43;;
40162;SDS011;25881;47.462;19.304;2022-12-18T08:14:14;69.15;;;28.10;;
40162;SDS011;25881;47.462;19.304;2022-12-18T08:16:39;62.95;;;29.27;;
40162;SDS011;25881;47.462;19.304;2022-12-18T08:19:05;65.32;;;28.40;;
40162;SDS011;25881;47.462;19.304;2022-12-18T08:21:31;74.43;;;31.70;;
40162;SDS011;25881;47.462;19.304;2022-12-18T08:23:57;77.75;;;34.63;;
40162;SDS011;25881;47.462;19.304;2022-12-18T08:26:24;89.80;;;40.53;;
40162;SDS011;25881;47.462;19.304;2022-12-18T08:28:50;76.60;;;34.95;;
40162;SDS011;25881;47.462;19.304;2022-12-18T08:31:15;69.03;;;29.48;;
40162;SDS011;25881;47.462;19.304;2022-12-18T08:33:41;65.18;;;27.77;;
40162;SDS011;25881;47.462;19.304;2022-12-18T08:36:07;69.30;;;30.02;;
40162;SDS011;25881;47.462;19.304;2022-12-18T08:38:33;70.45;;;29.90;;
40162;SDS011;25881;47.462;19.304;2022-12-18T08:41:01;65.10;;;28.93;;
40162;SDS011;25881;47.462;19.304;2022-12-18T08:43:27;59.80;;;27.70;;
40162;SDS011;25881;47.462;19.304;2022-12-18T08:46:11;61.70;;;27.95;;
40162;SDS011;25881;47.462;19.304;2022-12-18T08:48:37;62.88;;;29.25;;
40162;SDS011;25881;47.462;19.304;2022-12-18T08:51:02;67.82;;;29.55;;
40162;SDS011;25881;47.462;19.304;2022-12-18T08:53:28;69.35;;;30.02;;
40162;SDS011;25881;47.462;19.304;2022-12-18T08:55:53;76.55;;;31.98;;
40162;SDS011;25881;47.462;19.304;2022-12-18T08:58:18;70.50;;;30.70;;
40162;SDS011;25881;47.462;19.304;2022-12-18T09:00:43;75.95;;;34.10;;
40162;SDS011;25881;47.462;19.304;2022-12-18T09:03:16;64.40;;;29.05;;
40162;SDS011;25881;47.462;19.304;2022-12-18T09:05:41;64.57;;;30.38;;
40162;SDS011;25881;47.462;19.304;2022-12-18T09:08:07;68.13;;;30.08;;
40162;SDS011;25881;47.462;19.304;2022-12-18T09:10:32;65.87;;;29.43;;
40162;SDS011;25881;47.462;19.304;2022-12-18T09:12:57;77.93;;;32.55;;
40162;SDS011;25881;47.462;19.304;2022-12-18T09:15:22;72.25;;;32.05;;
40162;SDS011;25881;47.462;19.304;2022-12-18T09:17:48;71.10;;;31.47;;
40162;SDS011;25881;47.462;19.304;2022-12-18T09:20:14;69.53;;;32.25;;
40162;SDS011;25881;47.462;19.304;2022-12-18T09:22:40;66.60;;;30.95;;
40162;SDS011;25881;47.462;19.304;2022-12-18T09:25:05;63.10;;;27.13;;
40162;SDS011;25881;47.462;19.304;2022-12-18T09:27:33;62.63;;;30.00;;
40162;SDS011;25881;47.462;19.304;2022-12-18T09:29:58;64.75;;;28.70;;
40162;SDS011;25881;47.462;19.304;2022-12-18T09:32:23;69.13;;;31.93;;
40162;SDS011;25881;47.462;19.304;2022-12-18T09:34:48;66.03;;;30.80;;
40162;SDS011;25881;47.462;19.304;2022-12-18T09:37:14;72.28;;;32.25;;
40162;SDS011;25881;47.462;19.304;2022-12-18T09:39:39;65.00;;;28.23;;
40162;SDS011;25881;47.462;19.304;2022-12-18T09:42:04;69.60;;;30.60;;
40162;SDS011;25881;47.462;19.304;2022-12-18T09:44:41;67.53;;;31.55;;
40162;SDS011;25881;47.462;19.304;2022-12-18T09:47:18;62.95;;;27.98;;
40162;SDS011;25881;47.462;19.304;2022-12-18T09:49:45;70.25;;;33.55;;
40162;SDS011;25881;47.462;19.304;2022-12-18T09:54:53;56.78;;;27.23;;
40162;SDS011;25881;47.462;19.304;2022-12-18T09:57:20;62.20;;;29.38;;
40162;SDS011;25881;47.462;19.304;2022-12-18T09:59:56;64.93;;;28.77;;
40162;SDS011;25881;47.462;19.304;2022-12-18T10:02:24;68.93;;;29.80;;
40162;SDS011;25881;47.462;19.304;2022-12-18T10:05:04;61.97;;;30.38;;
40162;SDS011;25881;47.462;19.304;2022-12-18T10:10:26;64.28;;;27.23;;
40162;SDS011;25881;47.462;19.304;2022-12-18T10:15:40;61.47;;;29.17;;
40162;SDS011;25881;47.462;19.304;2022-12-18T10:20:52;64.07;;;28.30;;
40162;SDS011;25881;47.462;19.304;2022-12-18T10:23:21;62.65;;;28.95;;
40162;SDS011;25881;47.462;19.304;2022-12-18T10:26:02;62.60;;;28.85;;
40162;SDS011;25881;47.462;19.304;2022-12-18T10:28:29;62.83;;;29.55;;
40162;SDS011;25881;47.462;19.304;2022-12-18T10:30:55;64.53;;;29.85;;
40162;SDS011;25881;47.462;19.304;2022-12-18T10:33:22;58.22;;;28.63;;
40162;SDS011;25881;47.462;19.304;2022-12-18T10:35:48;71.37;;;32.13;;
40162;SDS011;25881;47.462;19.304;2022-12-18T10:43:30;60.50;;;30.13;;
40162;SDS011;25881;47.462;19.304;2022-12-18T10:48:34;62.70;;;30.00;;
40162;SDS011;25881;47.462;19.304;2022-12-18T10:51:00;57.53;;;26.92;;
40162;SDS011;25881;47.462;19.304;2022-12-18T10:53:28;67.05;;;29.10;;
40162;SDS011;25881;47.462;19.304;2022-12-18T10:55:55;65.07;;;30.10;;
40162;SDS011;25881;47.462;19.304;2022-12-18T10:58:37;60.65;;;29.17;;
40162;SDS011;25881;47.462;19.304;2022-12-18T11:01:09;59.67;;;28.58;;
40162;SDS011;25881;47.462;19.304;2022-12-18T11:03:45;57.03;;;27.67;;
40162;SDS011;25881;47.462;19.304;2022-12-18T11:11:06;59.45;;;26.95;;
40162;SDS011;25881;47.462;19.304;2022-12-18T11:13:32;61.83;;;29.17;;
40162;SDS011;25881;47.462;19.304;2022-12-18T11:15:58;66.57;;;29.63;;
40162;SDS011;25881;47.462;19.304;2022-12-18T11:23:16;58.75;;;27.40;;
40162;SDS011;25881;47.462;19.304;2022-12-18T11:25:50;58.10;;;25.80;;
40162;SDS011;25881;47.462;19.304;2022-12-18T11:33:46;55.70;;;25.50;;
40162;SDS011;25881;47.462;19.304;2022-12-18T11:36:14;56.75;;;25.40;;
40162;SDS011;25881;47.462;19.304;2022-12-18T11:38:39;60.78;;;27.80;;
40162;SDS011;25881;47.462;19.304;2022-12-18T11:41:18;53.92;;;25.35;;
40162;SDS011;25881;47.462;19.304;2022-12-18T11:46:23;58.08;;;27.25;;
40162;SDS011;25881;47.462;19.304;2022-12-18T11:48:50;54.40;;;27.00;;
40162;SDS011;25881;47.462;19.304;2022-12-18T11:51:23;55.95;;;27.13;;
40162;SDS011;25881;47.462;19.304;2022-12-18T11:53:51;51.80;;;24.55;;
40162;SDS011;25881;47.462;19.304;2022-12-18T11:57:01;52.53;;;24.98;;
40162;SDS011;25881;47.462;19.304;2022-12-18T11:59:48;55.83;;;26.92;;
40162;SDS011;25881;47.462;19.304;2022-12-18T12:02:09;54.53;;;26.88;;
40162;SDS011;25881;47.462;19.304;2022-12-18T12:04:56;53.30;;;24.55;;
40162;SDS011;25881;47.462;19.304;2022-12-18T12:07:28;56.05;;;27.50;;
40162;SDS011;25881;47.462;19.304;2022-12-18T12:12:55;63.55;;;29.42;;
40162;SDS011;25881;47.462;19.304;2022-12-18T12:20:41;65.23;;;29.77;;
40162;SDS011;25881;47.462;19.304;2022-12-18T12:25:40;50.58;;;25.50;;
40162;SDS011;25881;47.462;19.304;2022-12-18T12:28:14;62.15;;;28.42;;
40162;SDS011;25881;47.462;19.304;2022-12-18T12:40:51;49.85;;;24.98;;
40162;SDS011;25881;47.462;19.304;2022-12-18T12:44:00;55.92;;;25.30;;
40162;SDS011;25881;47.462;19.304;2022-12-18T12:46:06;54.38;;;25.33;;
40162;SDS011;25881;47.462;19.304;2022-12-18T12:50:58;50.60;;;24.77;;
40162;SDS011;25881;47.462;19.304;2022-12-18T12:53:29;48.17;;;22.95;;
40162;SDS011;25881;47.462;19.304;2022-12-18T12:55:55;44.65;;;22.30;;
40162;SDS011;25881;47.462;19.304;2022-12-18T13:01:01;56.13;;;26.08;;
40162;SDS011;25881;47.462;19.304;2022-12-18T13:03:35;47.00;;;22.58;;
40162;SDS011;25881;47.462;19.304;2022-12-18T13:06:16;47.40;;;23.17;;
40162;SDS011;25881;47.462;19.304;2022-12-18T13:08:56;49.83;;;25.30;;
40162;SDS011;25881;47.462;19.304;2022-12-18T13:11:32;51.97;;;25.40;;
40162;SDS011;25881;47.462;19.304;2022-12-18T13:14:21;52.45;;;25.17;;
40162;SDS011;25881;47.462;19.304;2022-12-18T13:16:47;55.38;;;24.67;;
40162;SDS011;25881;47.462;19.304;2022-12-18T13:19:21;55.03;;;27.00;;
40162;SDS011;25881;47.462;19.304;2022-12-18T13:21:51;50.72;;;25.02;;
40162;SDS011;25881;47.462;19.304;2022-12-18T13:24:25;52.10;;;25.08;;
40162;SDS011;25881;47.462;19.304;2022-12-18T13:26:50;48.10;;;22.52;;
40162;SDS011;25881;47.462;19.304;2022-12-18T13:30:01;46.33;;;23.45;;
40162;SDS011;25881;47.462;19.304;2022-12-18T13:32:01;47.88;;;22.13;;
40162;SDS011;25881;47.462;19.304;2022-12-18T13:34:27;46.58;;;22.92;;
40162;SDS011;25881;47.462;19.304;2022-12-18T13:36:55;45.88;;;22.73;;
40162;SDS011;25881;47.462;19.304;2022-12-18T13:39:22;54.13;;;28.40;;
40162;SDS011;25881;47.462;19.304;2022-12-18T13:41:48;48.67;;;24.65;;
40162;SDS011;25881;47.462;19.304;2022-12-18T13:46:54;46.83;;;24.85;;
40162;SDS011;25881;47.462;19.304;2022-12-18T13:49:24;55.90;;;24.77;;
40162;SDS011;25881;47.462;19.304;2022-12-18T13:51:50;52.65;;;27.85;;
40162;SDS011;25881;47.462;19.304;2022-12-18T13:56:45;52.60;;;26.52;;
40162;SDS011;25881;47.462;19.304;2022-12-18T14:01:43;46.35;;;24.58;;
40162;SDS011;25881;47.462;19.304;2022-12-18T14:04:09;49.38;;;25.02;;
40162;SDS011;25881;47.462;19.304;2022-12-18T14:06:34;47.05;;;24.40;;
40162;SDS011;25881;47.462;19.304;2022-12-18T14:08:59;47.08;;;27.10;;
40162;SDS011;25881;47.462;19.304;2022-12-18T14:11:24;52.00;;;25.20;;
40162;SDS011;25881;47.462;19.304;2022-12-18T14:13:50;54.23;;;25.13;;
40162;SDS011;25881;47.462;19.304;2022-12-18T14:16:15;53.25;;;24.90;;
40162;SDS011;25881;47.462;19.304;2022-12-18T14:18:45;49.35;;;24.50;;
40162;SDS011;25881;47.462;19.304;2022-12-18T14:21:44;54.38;;;25.38;;
40162;SDS011;25881;47.462;19.304;2022-12-18T14:26:34;55.40;;;25.35;;
40162;SDS011;25881;47.462;19.304;2022-12-18T14:29:00;52.47;;;25.00;;
40162;SDS011;25881;47.462;19.304;2022-12-18T14:31:27;51.90;;;26.17;;
40162;SDS011;25881;47.462;19.304;2022-12-18T14:33:53;48.80;;;25.08;;
40162;SDS011;25881;47.462;19.304;2022-12-18T14:36:20;57.83;;;27.00;;
40162;SDS011;25881;47.462;19.304;2022-12-18T14:38:50;55.47;;;27.48;;
40162;SDS011;25881;47.462;19.304;2022-12-18T14:41:16;55.65;;;26.10;;
40162;SDS011;25881;47.462;19.304;2022-12-18T14:43:43;54.53;;;28.02;;
40162;SDS011;25881;47.462;19.304;2022-12-18T14:46:30;57.67;;;28.52;;
40162;SDS011;25881;47.462;19.304;2022-12-18T14:48:54;61.40;;;30.75;;
40162;SDS011;25881;47.462;19.304;2022-12-18T14:51:20;63.20;;;30.90;;
40162;SDS011;25881;47.462;19.304;2022-12-18T14:53:53;59.28;;;31.70;;
40162;SDS011;25881;47.462;19.304;2022-12-18T14:56:22;71.03;;;32.78;;
40162;SDS011;25881;47.462;19.304;2022-12-18T14:58:49;63.45;;;29.77;;
40162;SDS011;25881;47.462;19.304;2022-12-18T15:04:32;57.60;;;28.67;;
40162;SDS011;25881;47.462;19.304;2022-12-18T15:07:07;62.33;;;31.10;;
40162;SDS011;25881;47.462;19.304;2022-12-18T15:09:34;61.15;;;30.80;;
40162;SDS011;25881;47.462;19.304;2022-12-18T15:12:00;67.47;;;31.33;;
40162;SDS011;25881;47.462;19.304;2022-12-18T15:16:57;87.38;;;41.35;;
40162;SDS011;25881;47.462;19.304;2022-12-18T15:19:35;85.05;;;40.15;;
40162;SDS011;25881;47.462;19.304;2022-12-18T15:22:02;77.22;;;36.80;;
40162;SDS011;25881;47.462;19.304;2022-12-18T15:24:29;85.38;;;39.65;;
40162;SDS011;25881;47.462;19.304;2022-12-18T15:26:55;89.27;;;43.07;;
40162;SDS011;25881;47.462;19.304;2022-12-18T15:29:21;87.85;;;42.70;;
40162;SDS011;25881;47.462;19.304;2022-12-18T15:32:03;75.10;;;38.65;;
40162;SDS011;25881;47.462;19.304;2022-12-18T15:34:29;80.93;;;39.63;;
40162;SDS011;25881;47.462;19.304;2022-12-18T15:36:55;83.03;;;40.80;;
40162;SDS011;25881;47.462;19.304;2022-12-18T15:39:21;78.43;;;40.13;;
40162;SDS011;25881;47.462;19.304;2022-12-18T15:41:46;82.70;;;41.50;;
40162;SDS011;25881;47.462;19.304;2022-12-18T15:44:30;82.68;;;38.78;;
40162;SDS011;25881;47.462;19.304;2022-12-18T15:46:56;75.35;;;36.53;;
40162;SDS011;25881;47.462;19.304;2022-12-18T15:49:21;71.88;;;36.72;;
40162;SDS011;25881;47.462;19.304;2022-12-18T15:51:54;72.63;;;36.50;;
40162;SDS011;25881;47.462;19.304;2022-12-18T15:54:21;69.35;;;33.25;;
40162;SDS011;25881;47.462;19.304;2022-12-18T15:57:11;72.27;;;33.70;;
40162;SDS011;25881;47.462;19.304;2022-12-18T15:59:53;71.45;;;34.13;;
40162;SDS011;25881;47.462;19.304;2022-12-18T16:02:19;74.07;;;34.70;;